Time;durP1;ratioP1;P1;durP2;ratioP2;P2;SDS_P1;SDS_P2;PMS_P1;PMS_P2;Temp;Humidity;BMP_temperature;BMP_pressure;BME280_temperature;BME280_humidity;BME280_pressure;Samples;Min_cycle;Max_cycle;Signal;HPM_P1;HPM_P2
2022/03/20 00:00:26;;;;;;;13.48;6.05;;;4.00;99.90;;;;;;4974547;28;20384;-88
2022/03/20 00:02:55;;;;;;;8.00;5.72;;;4.00;99.90;;;;;;4960687;28;20057;-88
2022/03/20 00:05:20;;;;;;;10.90;6.50;;;4.10;99.90;;;;;;4957997;28;20090;-88
2022/03/20 00:07:46;;;;;;;12.88;6.70;;;4.00;99.90;;;;;;4973860;28;20085;-88
2022/03/20 00:10:14;;;;;;;12.95;6.88;;;4.10;99.90;;;;;;4940508;28;20098;-89
2022/03/20 00:12:40;;;;;;;12.60;6.75;;;4.00;99.90;;;;;;4966229;28;20050;-88
2022/03/20 00:15:07;;;;;;;14.50;7.03;;;3.90;99.90;;;;;;4957574;28;20042;-88
2022/03/20 00:17:33;;;;;;;11.02;6.43;;;3.90;99.90;;;;;;4946152;28;20051;-88
2022/03/20 00:19:59;;;;;;;12.55;6.72;;;3.80;99.90;;;;;;4974318;28;20049;-88
2022/03/20 00:22:26;;;;;;;12.70;7.10;;;3.80;99.90;;;;;;4957769;28;20050;-87
2022/03/20 00:24:51;;;;;;;10.65;6.63;;;3.80;99.90;;;;;;4958499;28;20058;-87
2022/03/20 00:27:17;;;;;;;8.77;6.13;;;3.70;99.90;;;;;;4956303;28;20050;-87
2022/03/20 00:29:43;;;;;;;12.77;6.35;;;3.70;99.90;;;;;;4958071;28;20042;-89
2022/03/20 00:32:12;;;;;;;11.50;6.28;;;3.70;99.90;;;;;;4989837;28;20104;-87
2022/03/20 00:34:39;;;;;;;13.18;6.60;;;3.60;99.90;;;;;;4974107;28;20133;-88
2022/03/20 00:37:06;;;;;;;12.32;6.75;;;3.60;99.90;;;;;;4961634;28;20046;-87
2022/03/20 00:39:33;;;;;;;12.63;6.70;;;3.50;99.90;;;;;;4977765;28;20042;-86
2022/03/20 00:41:59;;;;;;;12.38;7.45;;;3.40;99.90;;;;;;4978674;28;20096;-86
2022/03/20 00:44:24;;;;;;;14.18;6.80;;;3.40;99.90;;;;;;4961334;28;20057;-87
2022/03/20 00:46:50;;;;;;;12.90;7.38;;;3.40;99.90;;;;;;4978238;28;20058;-87
2022/03/20 00:49:16;;;;;;;11.85;6.75;;;3.40;99.90;;;;;;4958555;28;20050;-89
2022/03/20 00:51:42;;;;;;;9.80;6.85;;;3.40;99.90;;;;;;4991035;28;20098;-87
2022/03/20 00:54:09;;;;;;;12.52;6.75;;;3.40;99.90;;;;;;4978101;28;20601;-88
2022/03/20 00:56:34;;;;;;;12.38;6.85;;;3.40;99.90;;;;;;4961867;28;20049;-87
2022/03/20 00:59:00;;;;;;;13.55;7.30;;;3.30;99.90;;;;;;4995619;28;20054;-86
2022/03/20 01:01:29;;;;;;;15.32;7.22;;;3.20;99.90;;;;;;4963561;28;20050;-87
2022/03/20 01:03:56;;;;;;;13.23;7.22;;;3.20;99.90;;;;;;4977484;28;20132;-87
2022/03/20 01:06:22;;;;;;;12.55;7.00;;;3.10;99.90;;;;;;4977120;28;20492;-88
2022/03/20 01:08:52;;;;;;;13.88;7.55;;;3.10;99.90;;;;;;4967620;28;20054;-87
2022/03/20 01:11:18;;;;;;;14.40;6.65;;;3.10;99.90;;;;;;4961860;28;20063;-88
2022/03/20 01:13:44;;;;;;;13.90;7.28;;;3.10;99.90;;;;;;4961511;28;20061;-87
2022/03/20 01:16:10;;;;;;;14.30;6.90;;;3.10;99.90;;;;;;4961413;28;20054;-87
2022/03/20 01:18:36;;;;;;;14.40;7.18;;;3.10;99.90;;;;;;4961191;28;20054;-86
2022/03/20 01:21:02;;;;;;;11.63;6.68;;;3.10;99.90;;;;;;4979044;28;20069;-88
2022/03/20 01:23:29;;;;;;;12.57;7.70;;;3.00;99.90;;;;;;4979816;28;20092;-86
2022/03/20 01:25:55;;;;;;;11.73;7.38;;;3.00;99.90;;;;;;4936971;28;20042;-86
2022/03/20 01:28:23;;;;;;;11.80;7.68;;;3.00;99.90;;;;;;4957357;28;20117;-86
2022/03/20 01:30:49;;;;;;;19.17;7.45;;;2.90;99.90;;;;;;4948013;28;20133;-87
2022/03/20 01:33:16;;;;;;;18.30;7.80;;;2.90;99.90;;;;;;4944320;28;20109;-87
2022/03/20 01:35:42;;;;;;;15.55;7.32;;;2.90;99.90;;;;;;4976092;28;20057;-87
2022/03/20 01:38:08;;;;;;;13.25;7.85;;;2.90;99.90;;;;;;5007402;28;20050;-86
2022/03/20 01:40:35;;;;;;;15.98;7.63;;;2.90;99.90;;;;;;4969541;28;20058;-86
2022/03/20 01:43:02;;;;;;;14.73;8.13;;;2.90;99.90;;;;;;4975038;28;20061;-89
2022/03/20 01:45:27;;;;;;;11.20;7.07;;;3.00;99.90;;;;;;4995200;28;20053;-87
2022/03/20 01:47:54;;;;;;;16.15;7.18;;;2.90;99.90;;;;;;4948647;28;20054;-87
2022/03/20 01:50:22;;;;;;;15.40;7.72;;;2.90;99.90;;;;;;4964084;28;20097;-89
2022/03/20 01:52:49;;;;;;;13.90;7.88;;;2.90;99.90;;;;;;4963886;28;20042;-86
2022/03/20 01:55:16;;;;;;;13.05;7.32;;;2.90;99.90;;;;;;4956447;28;20082;-86
2022/03/20 01:57:44;;;;;;;12.63;7.38;;;2.90;99.90;;;;;;4956107;28;20053;-87
2022/03/20 02:00:13;;;;;;;14.32;8.35;;;2.80;99.90;;;;;;4963426;28;20451;-88
2022/03/20 02:02:39;;;;;;;17.50;7.60;;;2.80;99.90;;;;;;4955913;28;20046;-87
2022/03/20 02:05:12;;;;;;;15.10;9.10;;;2.80;99.90;;;;;;4961765;28;20096;-88
2022/03/20 02:07:40;;;;;;;15.25;8.10;;;2.80;99.90;;;;;;4991360;28;20046;-88
2022/03/20 02:10:07;;;;;;;15.07;7.47;;;2.70;99.90;;;;;;4955615;28;20043;-88
2022/03/20 02:12:36;;;;;;;11.80;7.35;;;2.70;99.90;;;;;;4964640;28;20508;-87
2022/03/20 02:15:03;;;;;;;16.45;8.32;;;2.70;99.90;;;;;;4969622;28;20078;-88
2022/03/20 02:17:30;;;;;;;15.65;8.18;;;2.70;99.90;;;;;;4974455;28;20077;-87
2022/03/20 02:20:03;;;;;;;14.07;8.07;;;2.70;99.90;;;;;;4974515;28;20042;-88
2022/03/20 02:22:32;;;;;;;14.52;8.40;;;2.60;99.90;;;;;;4966592;28;20046;-87
2022/03/20 02:25:05;;;;;;;15.90;8.35;;;2.60;99.90;;;;;;4958005;28;20098;-87
2022/03/20 02:27:32;;;;;;;15.02;8.35;;;2.50;99.90;;;;;;4942042;28;20133;-87
2022/03/20 02:30:00;;;;;;;19.13;8.70;;;2.50;99.90;;;;;;4972999;28;20111;-89
2022/03/20 02:32:28;;;;;;;17.13;9.02;;;2.50;99.90;;;;;;4961111;28;20084;-89
2022/03/20 02:35:01;;;;;;;16.70;8.23;;;2.40;99.90;;;;;;4990713;28;20054;-88
2022/03/20 02:37:28;;;;;;;15.98;8.93;;;2.30;99.90;;;;;;4974053;28;20051;-87
2022/03/20 02:39:56;;;;;;;17.15;9.35;;;2.40;99.90;;;;;;4953951;28;20050;-87
2022/03/20 02:42:23;;;;;;;18.70;8.98;;;2.40;99.90;;;;;;4970100;28;20105;-88
2022/03/20 02:45:14;;;;;;;15.27;8.45;;;2.40;99.90;;;;;;4956512;28;20094;-88
2022/03/20 02:47:42;;;;;;;14.07;8.45;;;2.40;99.90;;;;;;4957828;28;20038;-88
2022/03/20 02:50:18;;;;;;;13.43;8.70;;;2.40;99.90;;;;;;4948143;28;20047;-88
2022/03/20 02:52:58;;;;;;;;;;;2.40;99.90;;;;;;4945010;28;20084;-88
2022/03/20 02:55:37;;;;;;;15.57;8.57;;;2.30;99.90;;;;;;4958334;28;19951;-90
2022/03/20 02:58:12;;;;;;;18.27;8.57;;;2.30;99.90;;;;;;4962928;28;20472;-87
2022/03/20 03:00:40;;;;;;;18.40;9.23;;;2.30;99.90;;;;;;4950287;28;20057;-89
2022/03/20 03:03:11;;;;;;;16.70;9.90;;;2.30;99.90;;;;;;4972145;28;20046;-88
2022/03/20 03:05:38;;;;;;;21.98;10.23;;;2.20;99.90;;;;;;4942235;28;20057;-88
2022/03/20 03:11:01;;;;;;;19.15;9.48;;;2.20;99.90;;;;;;4972217;28;20058;-87
2022/03/20 03:13:35;;;;;;;16.88;8.98;;;2.20;99.90;;;;;;4973228;28;20054;-90
2022/03/20 03:16:04;;;;;;;17.23;9.57;;;2.20;99.90;;;;;;4968245;28;20492;-89
2022/03/20 03:18:30;;;;;;;18.05;9.52;;;2.20;99.90;;;;;;4957484;28;20081;-87
2022/03/20 03:20:56;;;;;;;17.80;9.38;;;2.10;99.90;;;;;;4973757;28;20050;-87
2022/03/20 03:23:25;;;;;;;18.95;9.68;;;2.00;99.90;;;;;;4956486;28;20046;-88
2022/03/20 03:25:51;;;;;;;19.17;9.38;;;2.00;99.90;;;;;;4973234;28;20053;-87
2022/03/20 03:28:17;;;;;;;19.05;10.43;;;2.00;99.90;;;;;;4973282;28;20057;-87
2022/03/20 03:30:45;;;;;;;15.73;9.52;;;2.10;99.90;;;;;;4973243;28;20988;-87
2022/03/20 03:33:12;;;;;;;21.40;10.52;;;2.00;99.90;;;;;;4973357;28;20065;-87
2022/03/20 03:35:54;;;;;;;20.08;10.57;;;2.00;99.90;;;;;;4956764;28;20492;-89
2022/03/20 03:38:34;;;;;;;19.80;10.25;;;2.00;99.90;;;;;;4972096;28;20062;-87
2022/03/20 03:41:00;;;;;;;19.45;10.25;;;2.00;99.90;;;;;;4989803;28;20046;-87
2022/03/20 03:43:26;;;;;;;19.75;11.00;;;2.00;99.90;;;;;;4958421;28;20073;-87
2022/03/20 03:45:56;;;;;;;20.52;11.07;;;2.00;99.90;;;;;;4973431;28;20058;-87
2022/03/20 03:48:22;;;;;;;17.25;11.60;;;2.00;99.90;;;;;;4957450;28;20050;-88
2022/03/20 03:50:51;;;;;;;18.27;10.70;;;2.00;99.90;;;;;;4957404;28;20054;-87
2022/03/20 03:53:16;;;;;;;18.55;11.10;;;2.00;99.90;;;;;;4974312;28;20050;-88
2022/03/20 03:55:43;;;;;;;21.38;11.73;;;2.00;99.90;;;;;;4961029;28;20054;-89
2022/03/20 03:58:09;;;;;;;21.17;11.68;;;2.00;99.90;;;;;;4958231;28;20053;-88
2022/03/20 04:00:35;;;;;;;21.95;12.70;;;2.00;99.90;;;;;;4957678;28;20054;-88
2022/03/20 04:03:01;;;;;;;20.58;12.27;;;2.00;99.90;;;;;;4956812;28;20484;-86
2022/03/20 04:05:30;;;;;;;21.90;12.70;;;1.90;99.90;;;;;;4960939;28;20045;-88
2022/03/20 04:07:56;;;;;;;23.95;11.70;;;1.90;99.90;;;;;;4974724;28;20042;-85
2022/03/20 04:10:23;;;;;;;21.88;12.35;;;1.90;99.90;;;;;;4988420;28;20066;-88
2022/03/20 04:12:49;;;;;;;23.10;12.00;;;1.90;99.90;;;;;;4976855;28;20064;-87
2022/03/20 04:15:17;;;;;;;22.92;12.50;;;1.90;99.90;;;;;;4990837;28;20050;-86
2022/03/20 04:17:43;;;;;;;24.02;12.35;;;1.90;99.90;;;;;;4960419;28;20046;-86
2022/03/20 04:20:10;;;;;;;25.60;12.40;;;1.90;99.90;;;;;;4977144;28;20050;-87
2022/03/20 04:22:39;;;;;;;21.25;13.25;;;1.80;99.90;;;;;;4944376;28;20074;-86
2022/03/20 04:25:06;;;;;;;25.05;13.60;;;1.80;99.90;;;;;;4960036;28;20496;-87
2022/03/20 04:27:32;;;;;;;24.35;13.48;;;1.80;99.90;;;;;;4960280;28;20062;-90
2022/03/20 04:29:58;;;;;;;19.88;12.50;;;1.80;99.90;;;;;;4979106;28;20053;-88
2022/03/20 04:32:24;;;;;;;21.50;12.48;;;1.80;99.90;;;;;;4981880;28;20054;-87
2022/03/20 04:34:50;;;;;;;22.30;12.98;;;1.80;99.90;;;;;;4944501;28;20046;-87
2022/03/20 04:37:17;;;;;;;26.60;13.55;;;1.80;99.90;;;;;;4976068;28;20042;-84
2022/03/20 04:39:43;;;;;;;24.55;14.00;;;1.90;99.90;;;;;;4977221;28;20046;-85
2022/03/20 04:42:09;;;;;;;24.27;14.40;;;1.80;99.90;;;;;;4996786;28;20053;-85
2022/03/20 04:44:39;;;;;;;24.42;14.27;;;1.80;99.90;;;;;;4978730;28;20134;-86
2022/03/20 04:58:29;;;;;;;25.98;13.32;;;1.80;99.90;;;;;;4970832;28;20057;-86
2022/03/20 05:00:53;;;;;;;27.38;14.82;;;1.70;99.90;;;;;;4976508;28;20715;-88
2022/03/20 05:03:19;;;;;;;25.33;14.48;;;1.70;99.90;;;;;;4962241;28;20085;-89
2022/03/20 05:05:46;;;;;;;27.30;14.75;;;1.60;99.90;;;;;;4963106;28;20042;-87
2022/03/20 05:08:11;;;;;;;24.67;14.38;;;1.70;99.90;;;;;;4961772;28;20042;-87
2022/03/20 05:13:22;;;;;;;28.35;15.00;;;1.70;99.90;;;;;;4969216;28;20133;-84
2022/03/20 05:15:48;;;;;;;21.40;13.95;;;1.70;99.90;;;;;;4991519;28;20137;-87
2022/03/20 05:18:14;;;;;;;27.23;15.05;;;1.70;99.90;;;;;;4960192;28;20563;-88
2022/03/20 05:20:43;;;;;;;28.10;14.80;;;1.70;99.90;;;;;;4960220;28;20051;-88
2022/03/20 05:23:10;;;;;;;28.20;15.60;;;1.70;99.90;;;;;;4961320;28;20054;-87
2022/03/20 05:25:36;;;;;;;29.17;15.55;;;1.60;99.90;;;;;;4977782;28;20050;-89
2022/03/20 05:28:02;;;;;;;28.65;14.93;;;1.70;99.90;;;;;;4961565;28;20054;-87
2022/03/20 05:30:28;;;;;;;26.00;15.43;;;1.60;99.90;;;;;;4945267;28;20050;-86
2022/03/20 05:32:55;;;;;;;23.88;15.07;;;1.70;99.90;;;;;;4960915;28;20058;-86
2022/03/20 05:35:20;;;;;;;32.88;16.20;;;1.70;99.90;;;;;;4976100;28;20050;-87
2022/03/20 05:37:46;;;;;;;30.02;15.75;;;1.60;99.90;;;;;;4945124;28;20683;-87
2022/03/20 05:40:14;;;;;;;28.60;16.80;;;1.70;99.90;;;;;;4961125;28;20050;-86
2022/03/20 05:42:39;;;;;;;29.52;15.98;;;1.70;99.90;;;;;;4976286;28;20061;-87
2022/03/20 05:45:06;;;;;;;25.83;15.75;;;1.70;99.90;;;;;;4959720;28;20042;-86
2022/03/20 05:47:32;;;;;;;26.10;15.00;;;1.70;99.90;;;;;;4961206;28;20152;-86
2022/03/20 05:50:00;;;;;;;28.77;15.35;;;1.70;99.90;;;;;;4944726;28;20042;-87
2022/03/20 05:52:27;;;;;;;30.05;16.13;;;1.70;99.90;;;;;;4966792;28;20425;-86
2022/03/20 05:54:52;;;;;;;26.73;16.20;;;1.60;99.90;;;;;;4973806;28;20054;-87
2022/03/20 06:00:04;;;;;;;28.52;16.02;;;1.70;99.90;;;;;;4962201;28;20089;-88
2022/03/20 06:02:30;;;;;;;28.70;16.95;;;1.60;99.90;;;;;;4959137;28;20088;-87
2022/03/20 06:04:56;;;;;;;32.55;17.30;;;1.70;99.90;;;;;;4941081;28;20107;-88
2022/03/20 06:07:21;;;;;;;27.77;16.30;;;1.70;99.90;;;;;;4972413;28;20051;-86
2022/03/20 06:09:47;;;;;;;29.27;16.50;;;1.70;99.90;;;;;;4955602;28;20047;-88
2022/03/20 06:12:13;;;;;;;28.30;16.80;;;1.70;99.90;;;;;;4983862;28;20058;-88
2022/03/20 06:14:39;;;;;;;27.95;16.02;;;1.80;99.90;;;;;;4957815;28;20412;-90
2022/03/20 06:17:06;;;;;;;26.70;16.50;;;1.80;99.90;;;;;;4959415;28;20049;-88
2022/03/20 06:19:31;;;;;;;32.05;18.90;;;1.90;99.90;;;;;;4959996;28;20373;-88
2022/03/20 06:21:57;;;;;;;31.25;16.58;;;1.80;99.90;;;;;;4960021;28;20050;-87
2022/03/20 06:24:23;;;;;;;30.73;16.90;;;1.90;99.90;;;;;;4976741;28;20054;-86
2022/03/20 06:26:49;;;;;;;27.75;16.52;;;2.00;99.90;;;;;;4953537;28;20120;-88
2022/03/20 06:29:15;;;;;;;28.60;17.27;;;2.00;99.90;;;;;;4976083;28;20038;-85
2022/03/20 06:31:41;;;;;;;28.95;17.38;;;2.10;99.90;;;;;;4975763;28;20491;-89
2022/03/20 06:34:07;;;;;;;29.55;17.25;;;2.10;99.90;;;;;;4974419;28;20046;-88
2022/03/20 06:36:33;;;;;;;28.75;16.88;;;2.20;99.90;;;;;;4959196;28;20057;-87
2022/03/20 06:38:59;;;;;;;25.77;16.48;;;2.20;99.90;;;;;;4944111;28;20050;-88
2022/03/20 06:41:24;;;;;;;30.15;17.15;;;2.20;99.90;;;;;;4995647;28;20081;-89
2022/03/20 06:43:50;;;;;;;28.30;16.83;;;2.20;99.90;;;;;;4968075;28;20050;-87
2022/03/20 06:46:16;;;;;;;30.73;17.15;;;2.40;99.90;;;;;;4975574;28;20109;-86
2022/03/20 06:48:42;;;;;;;29.77;17.17;;;2.30;99.90;;;;;;4959579;28;20054;-89
2022/03/20 06:51:07;;;;;;;30.02;17.35;;;2.30;99.90;;;;;;4948435;28;20059;-88
2022/03/20 06:53:34;;;;;;;30.38;17.10;;;2.30;99.90;;;;;;4963742;28;20058;-87
2022/03/20 06:56:00;;;;;;;27.67;16.92;;;2.40;99.90;;;;;;4958353;28;20389;-87
2022/03/20 06:58:27;;;;;;;29.20;17.58;;;2.40;99.90;;;;;;4975510;28;20058;-87
2022/03/20 07:00:53;;;;;;;32.42;18.45;;;2.50;99.90;;;;;;4974688;28;20121;-87
2022/03/20 07:03:20;;;;;;;28.92;16.88;;;2.50;99.90;;;;;;4964307;28;20048;-87
2022/03/20 07:05:46;;;;;;;27.60;16.73;;;2.50;99.90;;;;;;4959327;28;20452;-87
2022/03/20 07:08:12;;;;;;;32.25;17.25;;;2.50;99.70;;;;;;4959285;28;20150;-88
2022/03/20 07:10:38;;;;;;;27.75;18.65;;;2.70;99.20;;;;;;4957484;28;20075;-86
2022/03/20 07:15:57;;;;;;;30.40;17.60;;;2.80;98.90;;;;;;4942276;28;20059;-88
2022/03/20 07:18:23;;;;;;;30.38;17.35;;;2.90;98.50;;;;;;4965024;28;20105;-88
2022/03/20 07:20:50;;;;;;;29.00;17.23;;;3.00;98.30;;;;;;4940836;28;20126;-88
2022/03/20 07:23:16;;;;;;;27.48;17.02;;;3.00;97.80;;;;;;4957900;28;20476;-84
2022/03/20 07:31:13;;;;;;;28.17;16.63;;;3.20;96.90;;;;;;4946115;28;20057;-87
2022/03/20 07:33:39;;;;;;;29.92;16.98;;;3.10;96.50;;;;;;4973831;28;20042;-88
2022/03/20 07:36:06;;;;;;;27.63;16.58;;;3.30;96.30;;;;;;4966693;28;20044;-84
2022/03/20 07:38:32;;;;;;;28.17;17.13;;;3.30;95.90;;;;;;4956942;28;20054;-87
2022/03/20 07:40:58;;;;;;;30.05;16.33;;;3.40;95.60;;;;;;4914829;28;20051;-86
2022/03/20 07:43:25;;;;;;;28.25;16.55;;;3.40;95.40;;;;;;4955879;28;20042;-87
2022/03/20 07:45:51;;;;;;;30.95;18.02;;;3.40;95.30;;;;;;4939749;28;20061;-88
2022/03/20 07:48:17;;;;;;;28.45;17.63;;;3.50;95.10;;;;;;4951557;28;20046;-88
2022/03/20 07:50:43;;;;;;;29.85;18.33;;;3.50;94.80;;;;;;4943617;28;20108;-89
2022/03/20 07:53:09;;;;;;;31.17;18.92;;;3.60;94.40;;;;;;4940226;28;20058;-90
2022/03/20 07:55:35;;;;;;;27.23;16.45;;;3.70;94.00;;;;;;4940217;28;20070;-88
2022/03/20 07:58:01;;;;;;;29.88;17.15;;;3.70;93.90;;;;;;4920569;29;20109;-90
2022/03/20 08:00:27;;;;;;;27.55;17.20;;;3.90;93.10;;;;;;4937069;29;20409;-90
2022/03/20 08:02:53;;;;;;;39.03;18.33;;;3.80;93.00;;;;;;4948438;28;20043;-86
2022/03/20 08:05:20;;;;;;;32.72;18.25;;;3.90;92.50;;;;;;4956840;28;20058;-88
2022/03/20 08:07:46;;;;;;;31.30;18.10;;;4.00;92.40;;;;;;4956284;28;20100;-91
2022/03/20 08:10:13;;;;;;;27.70;17.35;;;4.10;91.80;;;;;;4973859;28;20050;-90
2022/03/20 08:12:39;;;;;;;29.30;17.67;;;4.10;91.80;;;;;;4975267;28;20058;-88
2022/03/20 08:15:06;;;;;;;27.77;17.60;;;4.20;91.30;;;;;;4958678;28;20794;-87
2022/03/20 08:17:41;;;;;;;29.70;17.13;;;4.30;91.20;;;;;;4979695;28;20068;-87
2022/03/20 08:20:07;;;;;;;31.05;17.95;;;4.40;90.70;;;;;;4959365;28;20042;-86
2022/03/20 08:22:33;;;;;;;29.42;18.00;;;4.40;90.30;;;;;;4958025;28;20043;-87
2022/03/20 08:24:59;;;;;;;28.75;18.40;;;4.50;90.10;;;;;;4958153;28;20562;-90
2022/03/20 08:27:25;;;;;;;29.35;18.33;;;4.60;89.20;;;;;;4959397;28;20050;-88
2022/03/20 08:29:51;;;;;;;29.38;17.77;;;4.70;89.10;;;;;;4958312;28;20093;-88
2022/03/20 08:32:19;;;;;;;30.35;18.45;;;4.60;88.00;;;;;;4975320;28;20097;-87
2022/03/20 08:34:45;;;;;;;31.58;18.60;;;4.80;86.80;;;;;;4959094;28;20096;-89
2022/03/20 08:37:10;;;;;;;30.63;18.27;;;4.80;87.10;;;;;;4958876;28;20090;-88
2022/03/20 08:39:36;;;;;;;29.95;17.58;;;4.80;86.70;;;;;;4959000;28;20046;-89
2022/03/20 08:42:05;;;;;;;28.95;18.00;;;4.90;85.00;;;;;;4974772;28;20543;-88
2022/03/20 08:44:31;;;;;;;29.67;18.15;;;4.90;85.00;;;;;;4974971;28;20054;-89
2022/03/20 08:46:57;;;;;;;31.10;17.83;;;5.00;85.10;;;;;;4958794;28;20053;-89
2022/03/20 08:49:25;;;;;;;29.08;17.60;;;5.10;84.20;;;;;;4959359;28;20046;-89
2022/03/20 08:51:50;;;;;;;30.48;17.50;;;5.30;83.80;;;;;;4990586;28;20061;-90
2022/03/20 08:54:18;;;;;;;30.45;17.10;;;5.30;83.10;;;;;;4975227;28;20054;-88
2022/03/20 08:56:47;;;;;;;31.50;19.15;;;5.30;82.00;;;;;;4976516;28;20137;-88
2022/03/20 08:59:13;;;;;;;28.92;17.80;;;5.40;81.70;;;;;;4977760;28;20484;-87
2022/03/20 09:01:39;;;;;;;30.20;18.05;;;5.50;81.40;;;;;;4962637;28;20058;-89
2022/03/20 09:04:07;;;;;;;32.83;18.08;;;5.60;80.20;;;;;;4978272;28;20050;-89
2022/03/20 09:06:37;;;;;;;30.20;18.70;;;5.60;80.00;;;;;;4978253;28;20042;-88
2022/03/20 09:09:10;;;;;;;31.88;18.05;;;5.70;79.40;;;;;;4977998;28;20045;-88
2022/03/20 09:11:38;;;;;;;31.80;18.77;;;5.80;77.40;;;;;;4960678;28;20058;-88
2022/03/20 09:14:06;;;;;;;29.30;17.98;;;6.00;78.30;;;;;;4976848;28;20066;-90
2022/03/20 09:19:19;;;;;;;29.80;18.80;;;6.10;76.70;;;;;;4974129;28;20188;-89
2022/03/20 09:21:48;;;;;;;27.80;17.38;;;6.20;75.70;;;;;;4957947;28;20150;-88
2022/03/20 09:24:17;;;;;;;34.45;18.90;;;6.30;76.10;;;;;;4958189;28;20057;-88
2022/03/20 09:26:51;;;;;;;27.58;17.48;;;6.40;75.10;;;;;;4958890;28;20057;-89
2022/03/20 09:29:19;;;;;;;29.60;19.20;;;6.40;74.50;;;;;;4974969;28;20039;-89
2022/03/20 09:31:50;;;;;;;35.90;20.17;;;6.50;74.20;;;;;;4958954;28;20042;-89
2022/03/20 09:34:18;;;;;;;27.00;17.63;;;6.60;73.00;;;;;;4959036;28;20047;-89
2022/03/20 09:36:44;;;;;;;29.40;19.15;;;6.80;73.10;;;;;;4958075;28;20141;-88
2022/03/20 09:39:10;;;;;;;29.02;18.88;;;6.90;73.10;;;;;;4992792;28;20683;-88
2022/03/20 09:41:41;;;;;;;30.88;18.85;;;7.10;71.40;;;;;;4979141;28;20543;-89
2022/03/20 09:44:07;;;;;;;32.05;20.10;;;7.30;70.10;;;;;;4944658;28;20054;-89
2022/03/20 09:46:36;;;;;;;31.15;19.58;;;7.50;68.90;;;;;;4976346;28;20524;-89
2022/03/20 09:49:05;;;;;;;29.05;19.05;;;7.60;68.70;;;;;;4976481;28;20049;-90
2022/03/20 09:51:33;;;;;;;31.77;19.42;;;7.90;67.70;;;;;;4977977;28;20045;-87
2022/03/20 09:53:58;;;;;;;31.52;19.58;;;8.10;66.10;;;;;;4961470;28;20088;-90
2022/03/20 09:56:27;;;;;;;29.95;20.55;;;8.30;65.90;;;;;;4961271;28;20050;-88
2022/03/20 09:58:52;;;;;;;27.33;18.85;;;8.40;64.70;;;;;;4961015;28;20046;-89
2022/03/20 10:01:18;;;;;;;30.38;20.45;;;8.60;63.70;;;;;;4977469;28;20331;-87
2022/03/20 10:03:46;;;;;;;30.77;19.83;;;8.70;62.60;;;;;;4993234;28;20046;-89
2022/03/20 10:06:16;;;;;;;30.77;19.80;;;8.80;62.10;;;;;;4977224;28;20258;-88
2022/03/20 10:09:00;;;;;;;33.72;20.70;;;9.00;61.90;;;;;;4976208;28;20049;-89
2022/03/20 10:11:28;;;;;;;29.02;19.52;;;9.30;58.50;;;;;;4960548;28;20066;-89
2022/03/20 10:14:19;;;;;;;27.77;19.33;;;9.40;60.70;;;;;;4972800;28;20046;-91
2022/03/20 10:17:14;;;;;;;32.33;20.23;;;9.60;58.30;;;;;;4957484;28;20076;-88
2022/03/20 10:19:40;;;;;;;29.23;20.08;;;9.80;57.50;;;;;;4973905;28;20051;-88
2022/03/20 10:22:10;;;;;;;30.83;20.08;;;10.10;57.50;;;;;;4973815;28;20046;-89
2022/03/20 10:24:46;;;;;;;30.55;19.80;;;10.60;56.20;;;;;;4973781;28;20050;-89
2022/03/20 10:27:13;;;;;;;29.77;20.15;;;11.10;54.90;;;;;;4976570;28;20104;-89
2022/03/20 10:29:51;;;;;;;30.83;20.38;;;11.60;52.70;;;;;;4960630;28;20044;-88
2022/03/20 10:32:21;;;;;;;32.50;21.10;;;12.20;51.70;;;;;;4976893;28;20047;-88
2022/03/20 10:34:54;;;;;;;31.02;20.38;;;12.80;50.60;;;;;;4960829;28;20431;-88
2022/03/20 10:37:41;;;;;;;31.20;20.80;;;13.20;47.50;;;;;;4960668;28;20046;-88
2022/03/20 10:40:13;;;;;;;29.17;20.17;;;13.50;46.80;;;;;;4976195;28;20404;-90
2022/03/20 10:42:38;;;;;;;30.25;20.35;;;13.90;45.60;;;;;;4960611;28;20060;-89
2022/03/20 10:45:11;;;;;;;31.63;21.10;;;14.30;45.50;;;;;;4976096;28;20137;-88
2022/03/20 10:47:37;;;;;;;29.33;20.52;;;14.70;43.80;;;;;;4976727;28;20047;-90
2022/03/20 10:50:09;;;;;;;34.53;21.27;;;14.80;43.60;;;;;;4959801;28;20388;-89
2022/03/20 10:52:39;;;;;;;31.33;20.80;;;15.00;43.00;;;;;;4976443;28;20053;-86
2022/03/20 10:55:17;;;;;;;31.08;21.70;;;15.50;42.20;;;;;;4960301;28;20108;-87
2022/03/20 10:57:48;;;;;;;33.03;21.08;;;15.70;39.20;;;;;;4975990;28;20097;-87
2022/03/20 11:00:22;;;;;;;26.60;19.60;;;15.90;40.60;;;;;;4975583;28;20049;-86
2022/03/20 11:02:47;;;;;;;28.48;20.35;;;15.80;40.60;;;;;;4961495;28;20053;-86
2022/03/20 11:05:13;;;;;;;30.20;20.90;;;15.90;40.80;;;;;;4975837;28;20056;-88
2022/03/20 11:07:39;;;;;;;28.65;20.92;;;16.20;40.20;;;;;;4960379;28;20042;-86
2022/03/20 11:10:11;;;;;;;27.58;21.45;;;16.30;39.50;;;;;;4959535;28;20069;-86
2022/03/20 11:12:41;;;;;;;30.73;22.35;;;16.30;38.50;;;;;;4960147;28;20054;-87
2022/03/20 11:15:09;;;;;;;29.38;21.50;;;16.50;38.50;;;;;;4975638;28;20120;-87
2022/03/20 11:17:39;;;;;;;29.42;20.88;;;16.60;38.30;;;;;;4975607;28;20038;-85
2022/03/20 11:20:07;;;;;;;29.92;21.20;;;16.60;37.40;;;;;;4990196;28;20145;-87
2022/03/20 11:22:37;;;;;;;27.52;20.67;;;16.90;38.60;;;;;;4974963;28;20093;-88
2022/03/20 11:25:08;;;;;;;30.17;21.73;;;17.60;37.90;;;;;;4975722;28;20143;-86
2022/03/20 11:27:42;;;;;;;26.08;20.38;;;18.10;37.10;;;;;;4956554;28;20093;-85
2022/03/20 11:30:08;;;;;;;28.10;20.17;;;18.40;35.60;;;;;;4958992;28;20132;-86
2022/03/20 11:32:35;;;;;;;26.70;20.65;;;18.30;35.70;;;;;;4975969;28;20104;-87
2022/03/20 11:35:08;;;;;;;24.35;20.98;;;18.40;35.20;;;;;;4958599;28;20085;-92
2022/03/20 11:37:45;;;;;;;26.52;21.63;;;18.50;35.00;;;;;;4990613;28;20088;-87
2022/03/20 11:40:15;;;;;;;32.03;21.30;;;18.90;34.40;;;;;;4969634;28;20054;-85
2022/03/20 11:42:42;;;;;;;28.05;20.95;;;19.10;34.60;;;;;;4989426;28;20085;-83
2022/03/20 11:45:09;;;;;;;27.25;20.92;;;19.20;33.60;;;;;;4975081;28;20045;-87
2022/03/20 11:47:43;;;;;;;28.42;21.33;;;18.90;33.30;;;;;;4974548;28;20044;-86
2022/03/20 11:50:25;;;;;;;28.58;22.05;;;18.80;32.20;;;;;;4973903;28;20042;-88
2022/03/20 11:52:58;;;;;;;27.20;21.45;;;18.70;33.40;;;;;;4957462;28;20133;-86
2022/03/20 11:55:26;;;;;;;27.98;21.00;;;18.90;33.30;;;;;;4954837;28;20564;-87
2022/03/20 11:57:53;;;;;;;26.00;20.58;;;19.00;33.30;;;;;;4971744;28;20122;-88
2022/03/20 12:00:24;;;;;;;27.13;21.00;;;19.00;32.50;;;;;;4958864;28;20129;-85
2022/03/20 12:03:05;;;;;;;27.08;20.25;;;18.90;31.50;;;;;;4972427;28;20050;-84
2022/03/20 12:05:49;;;;;;;28.25;21.02;;;18.70;30.40;;;;;;4973656;28;20053;-84
2022/03/20 12:08:25;;;;;;;28.75;21.10;;;18.90;31.90;;;;;;4972226;28;20050;-83
2022/03/20 12:11:16;;;;;;;31.13;21.17;;;18.80;30.50;;;;;;4970996;28;20058;-83
2022/03/20 12:14:10;;;;;;;29.83;22.73;;;18.60;31.30;;;;;;4969048;28;20098;-84
2022/03/20 12:16:45;;;;;;;27.35;21.42;;;18.60;31.60;;;;;;4967778;28;20095;-82
2022/03/20 12:19:15;;;;;;;26.73;21.17;;;18.80;30.60;;;;;;4953673;28;21572;-82
2022/03/20 12:21:59;;;;;;;29.45;21.45;;;18.60;31.80;;;;;;4972311;28;20058;-82
2022/03/20 12:24:55;;;;;;;28.98;22.13;;;19.00;30.90;;;;;;4960976;28;20046;-82
2022/03/20 12:29:57;;;;;;;26.90;21.45;;;19.30;31.80;;;;;;4970391;28;20042;-82
2022/03/20 12:32:24;;;;;;;25.83;20.17;;;19.60;30.50;;;;;;4972488;28;20046;-82
2022/03/20 12:34:56;;;;;;;26.00;21.08;;;19.50;31.10;;;;;;4974227;28;20523;-83
2022/03/20 12:37:49;;;;;;;26.13;20.58;;;19.50;30.70;;;;;;4956529;28;20230;-83
2022/03/20 12:40:18;;;;;;;27.55;21.08;;;19.50;30.50;;;;;;4977975;28;20380;-82
2022/03/20 12:42:56;;;;;;;30.90;21.85;;;19.50;30.00;;;;;;4960785;28;20132;-82
2022/03/20 12:45:23;;;;;;;26.13;20.05;;;19.50;29.60;;;;;;4970673;28;20046;-82
2022/03/20 12:47:55;;;;;;;28.83;21.88;;;19.30;30.30;;;;;;4957058;28;20392;-83
2022/03/20 12:50:24;;;;;;;28.85;21.20;;;19.40;30.00;;;;;;4966904;28;20471;-84
2022/03/20 12:52:54;;;;;;;29.55;22.35;;;19.60;30.20;;;;;;4970428;28;20042;-83
2022/03/20 12:55:25;;;;;;;34.97;21.58;;;19.80;29.90;;;;;;4957343;28;20105;-82
2022/03/20 12:57:52;;;;;;;30.85;22.73;;;19.90;29.10;;;;;;4951771;28;20055;-82
2022/03/20 13:00:30;;;;;;;29.45;21.58;;;19.20;30.00;;;;;;4969114;28;20057;-82
2022/03/20 13:03:03;;;;;;;28.83;21.85;;;18.50;30.00;;;;;;4955960;28;20072;-83
2022/03/20 13:05:38;;;;;;;27.05;21.48;;;17.90;31.20;;;;;;4971965;28;20066;-84
2022/03/20 13:08:05;;;;;;;28.67;21.75;;;17.90;32.00;;;;;;4972184;28;20153;-83
2022/03/20 13:10:37;;;;;;;28.48;21.45;;;17.70;32.10;;;;;;4953504;28;20051;-85
2022/03/20 13:13:04;;;;;;;27.08;21.35;;;17.50;32.60;;;;;;4951456;28;20063;-84
2022/03/20 13:15:33;;;;;;;29.55;21.70;;;17.30;32.90;;;;;;4972239;28;20054;-84
2022/03/20 13:18:01;;;;;;;31.73;21.33;;;17.00;32.70;;;;;;4968287;28;20377;-84